Time;durP1;ratioP1;P1;durP2;ratioP2;P2;SDS_P1;SDS_P2;PMS_P1;PMS_P2;Temp;Humidity;BMP_temperature;BMP_pressure;BME280_temperature;BME280_humidity;BME280_pressure;Samples;Min_cycle;Max_cycle;Signal;HPM_P1;HPM_P2
2022/04/01 00:00:05;;;;;;;;;;;;;;;;;;344460;28;953;-71
2022/04/01 00:00:16;;;;;;;;;;;;;;;;;;344475;28;996;-71
2022/04/01 00:00:26;;;;;;;;;;;;;;;;;;344474;28;862;-71
2022/04/01 00:00:38;;;;;;;;;;;;;;;;;;344468;28;952;-70
2022/04/01 00:00:48;;;;;;;;;;;;;;;;;;344324;28;1000;-71
2022/04/01 00:00:58;;;;;;;;;;;;;;;;;;344466;28;767;-71
2022/04/01 00:01:09;;;;;;;;;;;;;;;;;;344421;28;921;-71
2022/04/01 00:01:19;;;;;;;;;;;;;;;;;;344502;28;802;-71
2022/04/01 00:01:29;;;;;;;;;;;;;;;;;;344440;28;937;-71
2022/04/01 00:01:40;;;;;;;;;;;;;;;;;;344466;28;900;-71
2022/04/01 00:01:51;;;;;;;;;;;;;;;;;;344448;28;934;-70
2022/04/01 00:02:01;;;;;;;;;;;;;;;;;;344463;28;1051;-70
2022/04/01 00:02:11;;;;;;;;;;;;;;;;;;344386;28;811;-71
2022/04/01 00:02:22;;;;;;;;;;;;;;;;;;344500;28;913;-71
2022/04/01 00:02:32;;;;;;;;;;;;;;;;;;344411;28;925;-71
2022/04/01 00:02:44;;;;;;;;;;;;;;;;;;344477;28;929;-71
2022/04/01 00:02:54;;;;;;;;;;;;;;;;;;344408;28;1052;-71
2022/04/01 00:03:05;;;;;;;;;;;;;;;;;;344432;28;1172;-70
2022/04/01 00:03:16;;;;;;;;;;;;;;;;;;344415;28;929;-70
2022/04/01 00:03:26;;;;;;;;;;;;;;;;;;344400;28;870;-71
2022/04/01 00:03:36;;;;;;;;;;;;;;;;;;344501;28;783;-71
2022/04/01 00:03:47;;;;;;;;;;;;;;;;;;344482;28;925;-71
2022/04/01 00:03:57;;;;;;;;;;;;;;;;;;344462;28;925;-70
2022/04/01 00:04:07;;;;;;;;;;;;;;;;;;344409;28;957;-71
2022/04/01 00:04:17;;;;;;;;;;;;;;;;;;344422;28;1064;-71
2022/04/01 00:04:28;;;;;;;;;;;;;;;;;;344480;28;921;-70
2022/04/01 00:04:39;;;;;;;;;;;;;;;;;;344477;28;870;-71
2022/04/01 00:04:50;;;;;;;;;;;;;;;;;;344421;28;1008;-70
2022/04/01 00:05:00;;;;;;;;;;;;;;;;;;344408;28;814;-70
2022/04/01 00:05:11;;;;;;;;;;;;;;;;;;344443;28;1004;-70
2022/04/01 00:05:21;;;;;;;;;;;;;;;;;;344398;28;973;-70
2022/04/01 00:05:33;;;;;;;;;;;;;;;;;;344467;28;1260;-71
2022/04/01 00:05:43;;;;;;;;;;;;;;;;;;345247;28;1324;-71
2022/04/01 00:05:53;;;;;;;;;;;;;;;;;;345834;28;980;-70
2022/04/01 00:06:04;;;;;;;;;;;;;;;;;;345822;28;1071;-71
2022/04/01 00:06:14;;;;;;;;;;;;;;;;;;345796;28;794;-70
2022/04/01 00:06:24;;;;;;;;;;;;;;;;;;345800;28;980;-71
2022/04/01 00:06:34;;;;;;;;;;;;;;;;;;345905;28;763;-70
2022/04/01 00:06:45;;;;;;;;;;;;;;;;;;345769;28;941;-70
2022/04/01 00:06:55;;;;;;;;;;;;;;;;;;345804;28;778;-70
2022/04/01 00:07:05;;;;;;;;;;;;;;;;;;345747;28;861;-71
2022/04/01 00:07:16;;;;;;;;;;;;;;;;;;345806;28;920;-71
2022/04/01 00:07:26;;;;;;;;;;;;;;;;;;343861;28;1557;-70
2022/04/01 00:07:38;;;;;;;;;;;;;;;;;;344319;28;1684;-71
2022/04/01 00:07:48;;;;;;;;;;;;;;;;;;343069;28;989;-71
2022/04/01 00:07:59;;;;;;;;;;;;;;;;;;343157;28;830;-71
2022/04/01 00:08:09;;;;;;;;;;;;;;;;;;343353;28;929;-70
2022/04/01 00:08:20;;;;;;;;;;;;;;;;;;343350;28;917;-71
2022/04/01 00:08:30;;;;;;;;;;;;;;;;;;343336;28;889;-71
2022/04/01 00:08:40;;;;;;;;;;;;;;;;;;343710;28;1925;-71
2022/04/01 00:08:50;;;;;;;;;;;;;;;;;;344687;28;1532;-70
2022/04/01 00:09:01;;;;;;;;;;;;;;;;;;344716;28;929;-70
2022/04/01 00:09:11;;;;;;;;;;;;;;;;;;344692;28;790;-70
2022/04/01 00:09:21;;;;;;;;;;;;;;;;;;344642;28;917;-71
2022/04/01 00:09:31;;;;;;;;;;;;;;;;;;344674;28;756;-71
2022/04/01 00:09:42;;;;;;;;;;;;;;;;;;344694;28;968;-71
2022/04/01 00:09:52;;;;;;;;;;;;;;;;;;344718;28;917;-71
2022/04/01 00:10:03;;;;;;;;;;;;;;;;;;344710;28;795;-71
2022/04/01 00:10:13;;;;;;;;;;;;;;;;;;344706;28;865;-71
2022/04/01 00:10:23;;;;;;;;;;;;;;;;;;344704;28;799;-71
2022/04/01 00:10:34;;;;;;;;;;;;;;;;;;344724;28;791;-71
2022/04/01 00:10:45;;;;;;;;;;;;;;;;;;344710;28;1167;-70
2022/04/01 00:10:55;;;;;;;;;;;;;;;;;;344757;28;894;-71
2022/04/01 00:11:05;;;;;;;;;;;;;;;;;;344600;28;1052;-70
2022/04/01 00:11:16;;;;;;;;;;;;;;;;;;344650;28;917;-70
2022/04/01 00:11:26;;;;;;;;;;;;;;;;;;344656;28;933;-71
2022/04/01 00:11:36;;;;;;;;;;;;;;;;;;344692;28;969;-71
2022/04/01 00:11:47;;;;;;;;;;;;;;;;;;344718;28;886;-71
2022/04/01 00:11:57;;;;;;;;;;;;;;;;;;344430;28;1545;-70
2022/04/01 00:12:08;;;;;;;;;;;;;;;;;;344704;28;980;-70
2022/04/01 00:12:18;;;;;;;;;;;;;;;;;;344663;28;961;-71
2022/04/01 00:12:28;;;;;;;;;;;;;;;;;;344693;28;803;-71
2022/04/01 00:12:43;;;;;;;;;;;;;;;;;;344718;28;933;-71
2022/04/01 00:12:53;;;;;;;;;;;;;;;;;;344678;28;989;-71
2022/04/01 00:13:03;;;;;;;;;;;;;;;;;;344728;28;984;-70
2022/04/01 00:13:14;;;;;;;;;;;;;;;;;;344678;28;822;-71
2022/04/01 00:13:24;;;;;;;;;;;;;;;;;;344646;28;906;-70
2022/04/01 00:13:34;;;;;;;;;;;;;;;;;;344728;28;941;-71
2022/04/01 00:13:45;;;;;;;;;;;;;;;;;;344684;28;941;-71
2022/04/01 00:13:55;;;;;;;;;;;;;;;;;;344705;28;953;-70
2022/04/01 00:14:05;;;;;;;;;;;;;;;;;;344387;28;1522;-70
2022/04/01 00:14:15;;;;;;;;;;;;;;;;;;344700;28;921;-70
2022/04/01 00:14:26;;;;;;;;;;;;;;;;;;344668;28;924;-70
2022/04/01 00:14:36;;;;;;;;;;;;;;;;;;344632;28;1915;-70
2022/04/01 00:14:46;;;;;;;;;;;;;;;;;;344661;28;1098;-70
2022/04/01 00:14:57;;;;;;;;;;;;;;;;;;344705;28;787;-70
2022/04/01 00:15:07;;;;;;;;;;;;;;;;;;344717;28;922;-70
2022/04/01 00:15:17;;;;;;;;;;;;;;;;;;344706;28;811;-70
2022/04/01 00:15:28;;;;;;;;;;;;;;;;;;344595;28;843;-71
2022/04/01 00:15:38;;;;;;;;;;;;;;;;;;344470;28;1561;-70
2022/04/01 00:15:48;;;;;;;;;;;;;;;;;;344710;28;909;-70
2022/04/01 00:15:59;;;;;;;;;;;;;;;;;;344683;28;922;-70
2022/04/01 00:16:09;;;;;;;;;;;;;;;;;;344497;28;1467;-71
2022/04/01 00:16:20;;;;;;;;;;;;;;;;;;344580;28;1084;-71
2022/04/01 00:16:31;;;;;;;;;;;;;;;;;;344661;28;945;-70
2022/04/01 00:16:41;;;;;;;;;;;;;;;;;;344636;28;982;-71
2022/04/01 00:16:52;;;;;;;;;;;;;;;;;;344707;28;909;-71
2022/04/01 00:17:02;;;;;;;;;;;;;;;;;;344684;28;941;-70
2022/04/01 00:17:12;;;;;;;;;;;;;;;;;;344683;28;842;-71
2022/04/01 00:17:22;;;;;;;;;;;;;;;;;;344701;28;977;-70
2022/04/01 00:17:33;;;;;;;;;;;;;;;;;;344380;28;1435;-70
2022/04/01 00:17:43;;;;;;;;;;;;;;;;;;344651;28;1084;-71
2022/04/01 00:17:54;;;;;;;;;;;;;;;;;;344680;28;1009;-70
2022/04/01 00:18:04;;;;;;;;;;;;;;;;;;344689;28;1065;-71
2022/04/01 00:18:15;;;;;;;;;;;;;;;;;;344369;28;1545;-70
2022/04/01 00:18:25;;;;;;;;;;;;;;;;;;344584;28;957;-71
2022/04/01 00:18:35;;;;;;;;;;;;;;;;;;344681;28;957;-71
2022/04/01 00:18:45;;;;;;;;;;;;;;;;;;344601;28;1017;-71
2022/04/01 00:18:56;;;;;;;;;;;;;;;;;;344693;28;972;-70
2022/04/01 00:19:06;;;;;;;;;;;;;;;;;;344651;28;980;-70
2022/04/01 00:19:16;;;;;;;;;;;;;;;;;;344698;28;1020;-70
2022/04/01 00:19:27;;;;;;;;;;;;;;;;;;344674;28;875;-70
2022/04/01 00:19:37;;;;;;;;;;;;;;;;;;344617;28;921;-71
2022/04/01 00:19:48;;;;;;;;;;;;;;;;;;344607;28;949;-71
2022/04/01 00:19:58;;;;;;;;;;;;;;;;;;344706;28;946;-71
2022/04/01 00:20:09;;;;;;;;;;;;;;;;;;344670;28;1082;-71
2022/04/01 00:20:19;;;;;;;;;;;;;;;;;;344677;28;945;-71
2022/04/01 00:20:30;;;;;;;;;;;;;;;;;;344612;28;1269;-71
2022/04/01 00:20:40;;;;;;;;;;;;;;;;;;344684;28;941;-71
2022/04/01 00:20:51;;;;;;;;;;;;;;;;;;344664;28;944;-71
2022/04/01 00:21:01;;;;;;;;;;;;;;;;;;344693;28;976;-71
2022/04/01 00:21:11;;;;;;;;;;;;;;;;;;344680;28;1145;-71
2022/04/01 00:21:21;;;;;;;;;;;;;;;;;;344685;28;910;-71
2022/04/01 00:21:32;;;;;;;;;;;;;;;;;;344640;28;790;-70
2022/04/01 00:21:42;;;;;;;;;;;;;;;;;;344604;28;1043;-70
2022/04/01 00:21:53;;;;;;;;;;;;;;;;;;344360;28;1832;-71
2022/04/01 00:22:05;;;;;;;;;;;;;;;;;;344718;28;838;-71
2022/04/01 00:22:16;;;;;;;;;;;;;;;;;;344695;28;854;-71
2022/04/01 00:22:26;;;;;;;;;;;;;;;;;;344694;28;922;-71
2022/04/01 00:22:37;;;;;;;;;;;;;;;;;;344636;28;879;-71
2022/04/01 00:22:47;;;;;;;;;;;;;;;;;;344722;28;932;-70
2022/04/01 00:22:57;;;;;;;;;;;;;;;;;;344671;28;968;-71
2022/04/01 00:23:08;;;;;;;;;;;;;;;;;;344687;28;996;-70
2022/04/01 00:23:18;;;;;;;;;;;;;;;;;;343685;28;1609;-70
2022/04/01 00:23:28;;;;;;;;;;;;;;;;;;345998;28;911;-71
2022/04/01 00:23:38;;;;;;;;;;;;;;;;;;345979;28;1090;-71
2022/04/01 00:23:49;;;;;;;;;;;;;;;;;;346006;28;964;-71
2022/04/01 00:23:59;;;;;;;;;;;;;;;;;;345984;28;1183;-70
2022/04/01 00:24:09;;;;;;;;;;;;;;;;;;346051;28;889;-71
2022/04/01 00:24:19;;;;;;;;;;;;;;;;;;345957;28;1051;-71
2022/04/01 00:24:30;;;;;;;;;;;;;;;;;;346080;28;826;-70
2022/04/01 00:24:40;;;;;;;;;;;;;;;;;;345976;28;1052;-70
2022/04/01 00:24:50;;;;;;;;;;;;;;;;;;346051;28;1011;-70
2022/04/01 00:25:00;;;;;;;;;;;;;;;;;;346082;28;870;-70
2022/04/01 00:25:11;;;;;;;;;;;;;;;;;;346012;28;874;-71
2022/04/01 00:25:22;;;;;;;;;;;;;;;;;;346075;28;870;-70
2022/04/01 00:25:32;;;;;;;;;;;;;;;;;;346018;28;988;-70
2022/04/01 00:25:42;;;;;;;;;;;;;;;;;;346016;28;909;-70
2022/04/01 00:25:53;;;;;;;;;;;;;;;;;;345939;28;1064;-70
2022/04/01 00:26:03;;;;;;;;;;;;;;;;;;345971;28;991;-70
2022/04/01 00:26:13;;;;;;;;;;;;;;;;;;345060;28;1557;-70
2022/04/01 00:26:24;;;;;;;;;;;;;;;;;;345757;28;961;-69
2022/04/01 00:26:34;;;;;;;;;;;;;;;;;;346020;28;901;-70
2022/04/01 00:26:45;;;;;;;;;;;;;;;;;;346042;28;905;-70
2022/04/01 00:26:55;;;;;;;;;;;;;;;;;;345975;28;928;-70
2022/04/01 00:27:06;;;;;;;;;;;;;;;;;;346034;28;929;-70
2022/04/01 00:27:16;;;;;;;;;;;;;;;;;;346015;28;1000;-70
2022/04/01 00:27:26;;;;;;;;;;;;;;;;;;346055;28;961;-70
2022/04/01 00:27:36;;;;;;;;;;;;;;;;;;346047;28;909;-70
2022/04/01 00:27:47;;;;;;;;;;;;;;;;;;345955;28;956;-70
2022/04/01 00:27:57;;;;;;;;;;;;;;;;;;345973;28;941;-70
2022/04/01 00:28:07;;;;;;;;;;;;;;;;;;346047;28;921;-70
2022/04/01 00:28:18;;;;;;;;;;;;;;;;;;346052;28;921;-71
2022/04/01 00:28:28;;;;;;;;;;;;;;;;;;345978;28;911;-70
2022/04/01 00:28:38;;;;;;;;;;;;;;;;;;346010;28;993;-70
2022/04/01 00:28:48;;;;;;;;;;;;;;;;;;346051;28;818;-70
2022/04/01 00:28:58;;;;;;;;;;;;;;;;;;345995;28;929;-71
2022/04/01 00:29:15;;;;;;;;;;;;;;;;;;346009;28;856;-71
2022/04/01 00:29:25;;;;;;;;;;;;;;;;;;345991;28;1055;-70
2022/04/01 00:29:35;;;;;;;;;;;;;;;;;;346046;28;949;-71
2022/04/01 00:29:48;;;;;;;;;;;;;;;;;;345930;28;1210;-70
2022/04/01 00:29:58;;;;;;;;;;;;;;;;;;345575;28;1240;-70
2022/04/01 00:30:09;;;;;;;;;;;;;;;;;;344669;28;980;-70
2022/04/01 00:30:20;;;;;;;;;;;;;;;;;;344666;28;936;-70
2022/04/01 00:30:30;;;;;;;;;;;;;;;;;;344698;28;913;-70
2022/04/01 00:30:41;;;;;;;;;;;;;;;;;;344705;28;987;-70
2022/04/01 00:30:53;;;;;;;;;;;;;;;;;;344655;28;925;-70
2022/04/01 00:31:04;;;;;;;;;;;;;;;;;;344640;28;932;-70
2022/04/01 00:31:14;;;;;;;;;;;;;;;;;;344720;28;877;-71
2022/04/01 00:31:24;;;;;;;;;;;;;;;;;;344685;28;917;-70
2022/04/01 00:31:34;;;;;;;;;;;;;;;;;;344674;28;976;-70
2022/04/01 00:31:49;;;;;;;;;;;;;;;;;;344631;28;957;-70
2022/04/01 00:32:00;;;;;;;;;;;;;;;;;;344613;28;1020;-70
2022/04/01 00:32:10;;;;;;;;;;;;;;;;;;344675;28;989;-70
2022/04/01 00:32:21;;;;;;;;;;;;;;;;;;344624;28;973;-70
2022/04/01 00:32:32;;;;;;;;;;;;;;;;;;344553;28;1522;-70
2022/04/01 00:32:42;;;;;;;;;;;;;;;;;;344650;28;1129;-71
2022/04/01 00:32:52;;;;;;;;;;;;;;;;;;344605;28;1028;-70
2022/04/01 00:33:04;;;;;;;;;;;;;;;;;;344665;28;988;-70
2022/04/01 00:33:16;;;;;;;;;;;;;;;;;;344620;28;918;-70
2022/04/01 00:33:26;;;;;;;;;;;;;;;;;;344686;28;760;-71
2022/04/01 00:33:36;;;;;;;;;;;;;;;;;;344656;28;933;-70
2022/04/01 00:33:47;;;;;;;;;;;;;;;;;;344633;28;1060;-71
2022/04/01 00:34:15;;;;;;;;;;;;;;;;;;344612;28;909;-71
2022/04/01 00:34:26;;;;;;;;;;;;;;;;;;344680;28;957;-70
2022/04/01 00:34:36;;;;;;;;;;;;;;;;;;344589;28;1983;-70
2022/04/01 00:34:48;;;;;;;;;;;;;;;;;;344636;28;929;-71
2022/04/01 00:34:58;;;;;;;;;;;;;;;;;;344680;28;976;-71
2022/04/01 00:35:09;;;;;;;;;;;;;;;;;;344704;28;976;-70
2022/04/01 00:35:19;;;;;;;;;;;;;;;;;;344660;28;1012;-70
2022/04/01 00:35:31;;;;;;;;;;;;;;;;;;344647;28;993;-71
2022/04/01 00:35:42;;;;;;;;;;;;;;;;;;344649;28;945;-71
2022/04/01 00:35:52;;;;;;;;;;;;;;;;;;344494;28;1817;-70
2022/04/01 00:36:02;;;;;;;;;;;;;;;;;;344588;28;1777;-71
2022/04/01 00:36:13;;;;;;;;;;;;;;;;;;344644;28;845;-70
2022/04/01 00:36:24;;;;;;;;;;;;;;;;;;344640;28;935;-71
2022/04/01 00:36:35;;;;;;;;;;;;;;;;;;344663;28;930;-70
2022/04/01 00:36:47;;;;;;;;;;;;;;;;;;344739;28;854;-70
2022/04/01 00:36:59;;;;;;;;;;;;;;;;;;344634;28;976;-71
2022/04/01 00:37:09;;;;;;;;;;;;;;;;;;344624;28;930;-70
2022/04/01 00:37:19;;;;;;;;;;;;;;;;;;344668;28;878;-70
2022/04/01 00:37:29;;;;;;;;;;;;;;;;;;344693;28;929;-70
2022/04/01 00:37:40;;;;;;;;;;;;;;;;;;344723;28;858;-70
2022/04/01 00:37:50;;;;;;;;;;;;;;;;;;344667;28;993;-70
2022/04/01 00:38:01;;;;;;;;;;;;;;;;;;344566;28;1029;-71
2022/04/01 00:38:11;;;;;;;;;;;;;;;;;;344633;28;1032;-71
2022/04/01 00:38:21;;;;;;;;;;;;;;;;;;344618;28;925;-70
2022/04/01 00:38:32;;;;;;;;;;;;;;;;;;344662;28;875;-70
2022/04/01 00:38:42;;;;;;;;;;;;;;;;;;344619;28;1076;-70
2022/04/01 00:38:52;;;;;;;;;;;;;;;;;;344645;28;917;-70
2022/04/01 00:39:03;;;;;;;;;;;;;;;;;;344653;28;945;-70
2022/04/01 00:39:13;;;;;;;;;;;;;;;;;;344424;28;1589;-70
2022/04/01 00:39:24;;;;;;;;;;;;;;;;;;344597;28;1557;-70
2022/04/01 00:39:34;;;;;;;;;;;;;;;;;;344659;28;988;-70
2022/04/01 00:39:45;;;;;;;;;;;;;;;;;;344627;28;913;-71
2022/04/01 00:39:55;;;;;;;;;;;;;;;;;;344643;28;836;-70
2022/04/01 00:40:06;;;;;;;;;;;;;;;;;;344674;28;929;-71
2022/04/01 00:40:17;;;;;;;;;;;;;;;;;;344695;28;925;-70
2022/04/01 00:40:27;;;;;;;;;;;;;;;;;;344603;28;925;-70
2022/04/01 00:40:37;;;;;;;;;;;;;;;;;;344655;28;922;-70
2022/04/01 00:40:50;;;;;;;;;;;;;;;;;;344649;28;1016;-71
2022/04/01 00:41:01;;;;;;;;;;;;;;;;;;344597;28;925;-70
2022/04/01 00:41:11;;;;;;;;;;;;;;;;;;344628;28;1052;-71
2022/04/01 00:41:21;;;;;;;;;;;;;;;;;;344669;28;952;-71
2022/04/01 00:41:32;;;;;;;;;;;;;;;;;;344613;28;965;-71
2022/04/01 00:41:44;;;;;;;;;;;;;;;;;;344679;28;1015;-70
2022/04/01 00:41:55;;;;;;;;;;;;;;;;;;344722;28;960;-70
2022/04/01 00:42:06;;;;;;;;;;;;;;;;;;344597;28;1032;-71
2022/04/01 00:42:16;;;;;;;;;;;;;;;;;;344724;28;770;-71
2022/04/01 00:42:26;;;;;;;;;;;;;;;;;;344624;28;1100;-70
2022/04/01 00:42:36;;;;;;;;;;;;;;;;;;344646;28;798;-71
2022/04/01 00:42:48;;;;;;;;;;;;;;;;;;344718;28;842;-70
2022/04/01 00:42:58;;;;;;;;;;;;;;;;;;344665;28;941;-71
2022/04/01 00:43:08;;;;;;;;;;;;;;;;;;344686;28;1002;-71
2022/04/01 00:43:29;;;;;;;;;;;;;;;;;;344608;28;973;-71
2022/04/01 00:43:39;;;;;;;;;;;;;;;;;;344664;28;1004;-70
2022/04/01 00:44:09;;;;;;;;;;;;;;;;;;344637;28;1025;-70
2022/04/01 00:44:22;;;;;;;;;;;;;;;;;;344535;28;1318;-70
2022/04/01 00:44:33;;;;;;;;;;;;;;;;;;344585;28;945;-71
2022/04/01 00:44:44;;;;;;;;;;;;;;;;;;344645;28;988;-71
2022/04/01 00:44:54;;;;;;;;;;;;;;;;;;344675;28;972;-70
2022/04/01 00:45:04;;;;;;;;;;;;;;;;;;344683;28;863;-71
2022/04/01 00:45:16;;;;;;;;;;;;;;;;;;344673;28;842;-71
2022/04/01 00:45:26;;;;;;;;;;;;;;;;;;344600;28;921;-70
2022/04/01 00:45:36;;;;;;;;;;;;;;;;;;344661;28;981;-70
2022/04/01 00:45:47;;;;;;;;;;;;;;;;;;344659;28;898;-71
2022/04/01 00:45:57;;;;;;;;;;;;;;;;;;344637;28;952;-70
2022/04/01 00:46:08;;;;;;;;;;;;;;;;;;344642;28;973;-71
2022/04/01 00:46:19;;;;;;;;;;;;;;;;;;344663;28;933;-70
2022/04/01 00:46:29;;;;;;;;;;;;;;;;;;344614;28;1064;-70
2022/04/01 00:46:40;;;;;;;;;;;;;;;;;;344599;28;855;-71
2022/04/01 00:46:52;;;;;;;;;;;;;;;;;;344618;28;984;-71
2022/04/01 00:47:04;;;;;;;;;;;;;;;;;;344687;28;941;-70
2022/04/01 00:47:15;;;;;;;;;;;;;;;;;;344662;28;857;-71
2022/04/01 00:47:25;;;;;;;;;;;;;;;;;;344688;28;914;-70
2022/04/01 00:47:36;;;;;;;;;;;;;;;;;;344632;28;1107;-71
2022/04/01 00:47:46;;;;;;;;;;;;;;;;;;344656;28;973;-71
2022/04/01 00:48:01;;;;;;;;;;;;;;;;;;344675;28;866;-70
2022/04/01 00:48:12;;;;;;;;;;;;;;;;;;344603;28;993;-71
2022/04/01 00:48:22;;;;;;;;;;;;;;;;;;344348;28;1809;-71
2022/04/01 00:48:33;;;;;;;;;;;;;;;;;;344576;28;1777;-71
2022/04/01 00:48:43;;;;;;;;;;;;;;;;;;344637;28;846;-71
2022/04/01 00:48:54;;;;;;;;;;;;;;;;;;344657;28;933;-71
2022/04/01 00:49:04;;;;;;;;;;;;;;;;;;344622;28;783;-71
2022/04/01 00:49:14;;;;;;;;;;;;;;;;;;344626;28;949;-71
2022/04/01 00:49:26;;;;;;;;;;;;;;;;;;344671;28;785;-71
2022/04/01 00:49:37;;;;;;;;;;;;;;;;;;344639;28;1103;-70
2022/04/01 00:49:48;;;;;;;;;;;;;;;;;;344585;28;937;-71
2022/04/01 00:49:58;;;;;;;;;;;;;;;;;;344661;28;894;-70
2022/04/01 00:50:08;;;;;;;;;;;;;;;;;;344644;28;877;-70
2022/04/01 00:50:19;;;;;;;;;;;;;;;;;;344673;28;893;-71
2022/04/01 00:50:30;;;;;;;;;;;;;;;;;;344626;28;874;-70
2022/04/01 00:50:40;;;;;;;;;;;;;;;;;;344460;28;1435;-70
2022/04/01 00:50:51;;;;;;;;;;;;;;;;;;344553;28;1055;-70
2022/04/01 00:51:01;;;;;;;;;;;;;;;;;;344635;28;913;-70
2022/04/01 00:51:12;;;;;;;;;;;;;;;;;;344590;28;935;-71
2022/04/01 00:51:22;;;;;;;;;;;;;;;;;;344632;28;1027;-70
2022/04/01 00:51:33;;;;;;;;;;;;;;;;;;344648;28;979;-71
2022/04/01 00:51:44;;;;;;;;;;;;;;;;;;344698;28;786;-70
2022/04/01 00:51:56;;;;;;;;;;;;;;;;;;344633;28;893;-71
2022/04/01 00:52:07;;;;;;;;;;;;;;;;;;344575;28;1180;-71
2022/04/01 00:52:20;;;;;;;;;;;;;;;;;;344635;28;787;-70
2022/04/01 00:52:31;;;;;;;;;;;;;;;;;;344672;28;927;-70
2022/04/01 00:52:44;;;;;;;;;;;;;;;;;;344614;28;805;-71
2022/04/01 00:52:54;;;;;;;;;;;;;;;;;;344592;28;941;-71
2022/04/01 00:53:04;;;;;;;;;;;;;;;;;;344649;28;961;-71
2022/04/01 00:53:17;;;;;;;;;;;;;;;;;;343877;28;1594;-70
2022/04/01 00:53:27;;;;;;;;;;;;;;;;;;345167;28;1028;-70
2022/04/01 00:53:38;;;;;;;;;;;;;;;;;;346031;28;798;-71
2022/04/01 00:53:48;;;;;;;;;;;;;;;;;;345960;28;973;-71
2022/04/01 00:53:58;;;;;;;;;;;;;;;;;;345954;28;1183;-70
2022/04/01 00:54:09;;;;;;;;;;;;;;;;;;345964;28;803;-70
2022/04/01 00:54:20;;;;;;;;;;;;;;;;;;345993;28;936;-71
2022/04/01 00:54:30;;;;;;;;;;;;;;;;;;345943;28;1906;-71
2022/04/01 00:54:41;;;;;;;;;;;;;;;;;;345996;28;928;-71
2022/04/01 00:54:51;;;;;;;;;;;;;;;;;;345807;28;1138;-71
2022/04/01 00:55:03;;;;;;;;;;;;;;;;;;345915;28;972;-71
2022/04/01 00:55:14;;;;;;;;;;;;;;;;;;345985;28;869;-71
2022/04/01 00:55:26;;;;;;;;;;;;;;;;;;346058;28;873;-71
2022/04/01 00:55:37;;;;;;;;;;;;;;;;;;345958;28;944;-70
2022/04/01 00:55:49;;;;;;;;;;;;;;;;;;345968;28;1004;-70
2022/04/01 00:55:59;;;;;;;;;;;;;;;;;;345996;28;944;-71
2022/04/01 00:56:09;;;;;;;;;;;;;;;;;;345963;28;1156;-70
2022/04/01 00:56:20;;;;;;;;;;;;;;;;;;345928;28;983;-71
2022/04/01 00:56:30;;;;;;;;;;;;;;;;;;345992;28;783;-71
2022/04/01 00:56:41;;;;;;;;;;;;;;;;;;345988;28;957;-71
2022/04/01 00:56:52;;;;;;;;;;;;;;;;;;346017;28;861;-71
2022/04/01 00:57:03;;;;;;;;;;;;;;;;;;345872;28;925;-71
2022/04/01 00:57:14;;;;;;;;;;;;;;;;;;346007;28;925;-71
2022/04/01 00:57:25;;;;;;;;;;;;;;;;;;346035;28;893;-71
2022/04/01 00:57:36;;;;;;;;;;;;;;;;;;346015;28;877;-71
2022/04/01 00:57:47;;;;;;;;;;;;;;;;;;345958;28;929;-71
2022/04/01 00:57:57;;;;;;;;;;;;;;;;;;345994;28;908;-71
2022/04/01 00:58:08;;;;;;;;;;;;;;;;;;346007;28;1071;-71
2022/04/01 00:58:20;;;;;;;;;;;;;;;;;;345982;28;797;-71
2022/04/01 00:58:31;;;;;;;;;;;;;;;;;;346015;28;945;-71
2022/04/01 00:58:42;;;;;;;;;;;;;;;;;;346069;28;805;-71
2022/04/01 00:58:52;;;;;;;;;;;;;;;;;;345954;28;921;-71
2022/04/01 00:59:03;;;;;;;;;;;;;;;;;;345998;28;862;-71
2022/04/01 00:59:13;;;;;;;;;;;;;;;;;;345981;28;833;-71
2022/04/01 00:59:26;;;;;;;;;;;;;;;;;;345488;28;1536;-71
2022/04/01 00:59:37;;;;;;;;;;;;;;;;;;343235;28;980;-71
2022/04/01 00:59:52;;;;;;;;;;;;;;;;;;343316;28;807;-71
2022/04/01 01:00:03;;;;;;;;;;;;;;;;;;343280;28;1145;-71
2022/04/01 01:00:14;;;;;;;;;;;;;;;;;;343221;28;910;-71
2022/04/01 01:00:25;;;;;;;;;;;;;;;;;;343282;28;972;-71
2022/04/01 01:00:36;;;;;;;;;;;;;;;;;;343245;28;907;-71
2022/04/01 01:00:47;;;;;;;;;;;;;;;;;;343205;28;1182;-71
2022/04/01 01:00:57;;;;;;;;;;;;;;;;;;343375;28;850;-71
2022/04/01 01:01:07;;;;;;;;;;;;;;;;;;343285;28;941;-71
2022/04/01 01:01:17;;;;;;;;;;;;;;;;;;343255;28;850;-71
2022/04/01 01:01:28;;;;;;;;;;;;;;;;;;343185;28;1227;-71
2022/04/01 01:01:40;;;;;;;;;;;;;;;;;;343326;28;787;-71
2022/04/01 01:01:50;;;;;;;;;;;;;;;;;;343288;28;921;-71
2022/04/01 01:02:00;;;;;;;;;;;;;;;;;;343299;28;857;-71
2022/04/01 01:02:11;;;;;;;;;;;;;;;;;;343248;28;976;-71
2022/04/01 01:02:21;;;;;;;;;;;;;;;;;;343312;28;925;-70
2022/04/01 01:02:34;;;;;;;;;;;;;;;;;;343295;28;992;-71
2022/04/01 01:02:44;;;;;;;;;;;;;;;;;;343228;28;1000;-71
2022/04/01 01:02:55;;;;;;;;;;;;;;;;;;343282;28;914;-71
2022/04/01 01:03:05;;;;;;;;;;;;;;;;;;343278;28;1008;-71
2022/04/01 01:03:15;;;;;;;;;;;;;;;;;;343262;28;818;-71
2022/04/01 01:03:26;;;;;;;;;;;;;;;;;;343251;28;933;-71
2022/04/01 01:03:36;;;;;;;;;;;;;;;;;;344105;28;1758;-71
2022/04/01 01:03:47;;;;;;;;;;;;;;;;;;344596;28;941;-70
2022/04/01 01:04:00;;;;;;;;;;;;;;;;;;344630;28;842;-70
2022/04/01 01:04:13;;;;;;;;;;;;;;;;;;344646;28;952;-71
2022/04/01 01:04:24;;;;;;;;;;;;;;;;;;344606;28;906;-71
2022/04/01 01:04:35;;;;;;;;;;;;;;;;;;344685;28;870;-71
2022/04/01 01:04:45;;;;;;;;;;;;;;;;;;344675;28;842;-71
2022/04/01 01:04:56;;;;;;;;;;;;;;;;;;344577;28;964;-72
2022/04/01 01:05:06;;;;;;;;;;;;;;;;;;344623;28;818;-71
2022/04/01 01:05:17;;;;;;;;;;;;;;;;;;344664;28;803;-71
2022/04/01 01:05:27;;;;;;;;;;;;;;;;;;344534;28;960;-71
2022/04/01 01:05:37;;;;;;;;;;;;;;;;;;344581;28;1218;-71
2022/04/01 01:05:47;;;;;;;;;;;;;;;;;;345971;28;933;-71
2022/04/01 01:05:58;;;;;;;;;;;;;;;;;;345908;28;933;-71
2022/04/01 01:06:08;;;;;;;;;;;;;;;;;;346008;28;972;-71
2022/04/01 01:06:19;;;;;;;;;;;;;;;;;;345988;28;869;-71
2022/04/01 01:06:31;;;;;;;;;;;;;;;;;;345933;28;1026;-71
2022/04/01 01:06:43;;;;;;;;;;;;;;;;;;345988;28;853;-71
2022/04/01 01:06:55;;;;;;;;;;;;;;;;;;345923;28;944;-71
2022/04/01 01:07:06;;;;;;;;;;;;;;;;;;346008;28;886;-71
2022/04/01 01:07:16;;;;;;;;;;;;;;;;;;345930;28;969;-71
2022/04/01 01:07:26;;;;;;;;;;;;;;;;;;345880;28;988;-71
2022/04/01 01:07:42;;;;;;;;;;;;;;;;;;345947;28;964;-71
2022/04/01 01:07:52;;;;;;;;;;;;;;;;;;346014;28;790;-71
2022/04/01 01:08:05;;;;;;;;;;;;;;;;;;345969;28;1118;-71
2022/04/01 01:08:15;;;;;;;;;;;;;;;;;;345943;28;976;-71
2022/04/01 01:08:26;;;;;;;;;;;;;;;;;;345956;28;1064;-71
2022/04/01 01:08:36;;;;;;;;;;;;;;;;;;345988;28;914;-71
2022/04/01 01:08:47;;;;;;;;;;;;;;;;;;346019;28;936;-71
2022/04/01 01:08:58;;;;;;;;;;;;;;;;;;345922;28;948;-71
2022/04/01 01:09:09;;;;;;;;;;;;;;;;;;345981;28;1000;-71
2022/04/01 01:09:19;;;;;;;;;;;;;;;;;;345985;28;953;-71
2022/04/01 01:09:30;;;;;;;;;;;;;;;;;;345986;28;928;-71
2022/04/01 01:09:42;;;;;;;;;;;;;;;;;;345940;28;976;-71
2022/04/01 01:09:52;;;;;;;;;;;;;;;;;;345929;28;930;-71
2022/04/01 01:10:03;;;;;;;;;;;;;;;;;;346040;28;779;-71
2022/04/01 01:10:14;;;;;;;;;;;;;;;;;;346004;28;980;-71
2022/04/01 01:10:25;;;;;;;;;;;;;;;;;;346002;28;945;-71
2022/04/01 01:10:36;;;;;;;;;;;;;;;;;;345912;28;1000;-71
2022/04/01 01:10:46;;;;;;;;;;;;;;;;;;345964;28;976;-70
2022/04/01 01:10:56;;;;;;;;;;;;;;;;;;345965;28;953;-71
2022/04/01 01:11:08;;;;;;;;;;;;;;;;;;346010;28;819;-71
2022/04/01 01:11:19;;;;;;;;;;;;;;;;;;345955;28;984;-71
2022/04/01 01:11:30;;;;;;;;;;;;;;;;;;345930;28;964;-71
2022/04/01 01:11:41;;;;;;;;;;;;;;;;;;345889;28;1020;-71
2022/04/01 01:11:52;;;;;;;;;;;;;;;;;;346032;28;849;-70
2022/04/01 01:12:03;;;;;;;;;;;;;;;;;;345949;28;992;-71
2022/04/01 01:12:13;;;;;;;;;;;;;;;;;;345938;28;790;-71
2022/04/01 01:12:25;;;;;;;;;;;;;;;;;;345989;28;928;-71
2022/04/01 01:12:35;;;;;;;;;;;;;;;;;;346032;28;830;-70
2022/04/01 01:12:46;;;;;;;;;;;;;;;;;;345997;28;964;-70
2022/04/01 01:12:57;;;;;;;;;;;;;;;;;;345936;28;865;-71
2022/04/01 01:13:07;;;;;;;;;;;;;;;;;;345933;28;838;-70
2022/04/01 01:13:17;;;;;;;;;;;;;;;;;;345989;28;870;-71
2022/04/01 01:13:29;;;;;;;;;;;;;;;;;;345963;28;984;-71
2022/04/01 01:13:40;;;;;;;;;;;;;;;;;;345874;28;835;-71
2022/04/01 01:13:50;;;;;;;;;;;;;;;;;;345969;28;913;-71
2022/04/01 01:14:00;;;;;;;;;;;;;;;;;;345958;28;996;-71
2022/04/01 01:14:13;;;;;;;;;;;;;;;;;;345148;28;1631;-71
2022/04/01 01:14:28;;;;;;;;;;;;;;;;;;344629;28;862;-71
2022/04/01 01:14:40;;;;;;;;;;;;;;;;;;344586;28;1978;-71
2022/04/01 01:14:50;;;;;;;;;;;;;;;;;;344605;28;802;-71
2022/04/01 01:15:11;;;;;;;;;;;;;;;;;;344579;28;1244;-71
2022/04/01 01:15:24;;;;;;;;;;;;;;;;;;343283;28;857;-70
2022/04/01 01:15:36;;;;;;;;;;;;;;;;;;343239;28;937;-71
2022/04/01 01:15:46;;;;;;;;;;;;;;;;;;343227;28;846;-70
2022/04/01 01:15:57;;;;;;;;;;;;;;;;;;343286;28;874;-71
2022/04/01 01:16:07;;;;;;;;;;;;;;;;;;343263;28;925;-71
2022/04/01 01:16:17;;;;;;;;;;;;;;;;;;343282;28;865;-71
2022/04/01 01:16:28;;;;;;;;;;;;;;;;;;343288;28;855;-71
2022/04/01 01:16:44;;;;;;;;;;;;;;;;;;343261;28;977;-71
2022/04/01 01:16:54;;;;;;;;;;;;;;;;;;343236;28;976;-71
2022/04/01 01:17:07;;;;;;;;;;;;;;;;;;343227;28;977;-71
2022/04/01 01:17:17;;;;;;;;;;;;;;;;;;343272;28;957;-71
2022/04/01 01:17:27;;;;;;;;;;;;;;;;;;343227;28;1096;-71
2022/04/01 01:17:39;;;;;;;;;;;;;;;;;;343292;28;945;-71
2022/04/01 01:17:49;;;;;;;;;;;;;;;;;;343221;28;984;-71